sensor_id;sensor_type;location;lat;lon;timestamp;P1;durP1;ratioP1;P2;durP2;ratioP2
18296;SDS011;18066;52.106;5.534;2023-02-23T00:00:16;60.30;;;33.27;;
18296;SDS011;18066;52.106;5.534;2023-02-23T00:02:47;62.03;;;33.30;;
18296;SDS011;18066;52.106;5.534;2023-02-23T00:05:14;61.53;;;31.30;;
18296;SDS011;18066;52.106;5.534;2023-02-23T00:07:42;62.27;;;32.87;;
18296;SDS011;18066;52.106;5.534;2023-02-23T00:10:10;59.07;;;33.10;;
18296;SDS011;18066;52.106;5.534;2023-02-23T00:12:39;61.23;;;31.60;;
18296;SDS011;18066;52.106;5.534;2023-02-23T00:15:07;63.90;;;32.67;;
18296;SDS011;18066;52.106;5.534;2023-02-23T00:17:35;65.67;;;33.23;;
18296;SDS011;18066;52.106;5.534;2023-02-23T00:20:05;64.37;;;32.03;;
18296;SDS011;18066;52.106;5.534;2023-02-23T00:22:36;56.60;;;30.20;;
18296;SDS011;18066;52.106;5.534;2023-02-23T00:25:04;62.43;;;32.20;;
18296;SDS011;18066;52.106;5.534;2023-02-23T00:27:35;61.70;;;31.83;;
18296;SDS011;18066;52.106;5.534;2023-02-23T00:30:03;63.13;;;32.43;;
18296;SDS011;18066;52.106;5.534;2023-02-23T00:32:32;60.93;;;31.90;;
18296;SDS011;18066;52.106;5.534;2023-02-23T00:35:01;61.83;;;32.07;;
18296;SDS011;18066;52.106;5.534;2023-02-23T00:37:27;65.43;;;31.97;;
18296;SDS011;18066;52.106;5.534;2023-02-23T00:39:54;60.83;;;31.37;;
18296;SDS011;18066;52.106;5.534;2023-02-23T00:42:22;57.13;;;31.27;;
18296;SDS011;18066;52.106;5.534;2023-02-23T00:44:53;62.73;;;31.83;;
18296;SDS011;18066;52.106;5.534;2023-02-23T00:47:21;61.30;;;31.43;;
18296;SDS011;18066;52.106;5.534;2023-02-23T00:49:48;59.37;;;31.30;;
18296;SDS011;18066;52.106;5.534;2023-02-23T00:52:16;62.40;;;32.17;;
18296;SDS011;18066;52.106;5.534;2023-02-23T00:54:43;57.70;;;30.80;;
18296;SDS011;18066;52.106;5.534;2023-02-23T00:57:10;59.13;;;30.90;;
18296;SDS011;18066;52.106;5.534;2023-02-23T00:59:36;61.80;;;32.07;;
18296;SDS011;18066;52.106;5.534;2023-02-23T01:02:03;63.67;;;31.03;;
18296;SDS011;18066;52.106;5.534;2023-02-23T01:04:30;64.10;;;31.10;;
18296;SDS011;18066;52.106;5.534;2023-02-23T01:06:57;58.90;;;31.13;;
18296;SDS011;18066;52.106;5.534;2023-02-23T01:09:25;57.87;;;30.80;;
18296;SDS011;18066;52.106;5.534;2023-02-23T01:11:53;59.27;;;30.53;;
18296;SDS011;18066;52.106;5.534;2023-02-23T01:14:22;56.60;;;29.47;;
18296;SDS011;18066;52.106;5.534;2023-02-23T01:16:49;58.90;;;30.87;;
18296;SDS011;18066;52.106;5.534;2023-02-23T01:19:16;53.93;;;29.30;;
18296;SDS011;18066;52.106;5.534;2023-02-23T01:21:43;54.03;;;29.00;;
18296;SDS011;18066;52.106;5.534;2023-02-23T01:24:10;56.83;;;30.07;;
18296;SDS011;18066;52.106;5.534;2023-02-23T01:26:39;62.67;;;35.97;;
18296;SDS011;18066;52.106;5.534;2023-02-23T01:29:09;58.60;;;31.37;;
18296;SDS011;18066;52.106;5.534;2023-02-23T01:31:38;64.57;;;32.47;;
18296;SDS011;18066;52.106;5.534;2023-02-23T01:34:08;63.77;;;30.77;;
18296;SDS011;18066;52.106;5.534;2023-02-23T01:36:37;56.97;;;29.43;;
18296;SDS011;18066;52.106;5.534;2023-02-23T01:39:06;58.73;;;30.30;;
18296;SDS011;18066;52.106;5.534;2023-02-23T01:41:36;61.73;;;30.97;;
18296;SDS011;18066;52.106;5.534;2023-02-23T01:44:05;60.63;;;30.27;;
18296;SDS011;18066;52.106;5.534;2023-02-23T01:46:33;60.00;;;30.20;;
18296;SDS011;18066;52.106;5.534;2023-02-23T01:49:03;57.77;;;29.80;;
18296;SDS011;18066;52.106;5.534;2023-02-23T01:51:32;63.53;;;31.67;;
18296;SDS011;18066;52.106;5.534;2023-02-23T01:54:03;61.67;;;31.27;;
18296;SDS011;18066;52.106;5.534;2023-02-23T01:56:36;58.03;;;30.20;;
18296;SDS011;18066;52.106;5.534;2023-02-23T01:59:09;58.57;;;30.13;;
18296;SDS011;18066;52.106;5.534;2023-02-23T02:01:39;54.93;;;27.97;;
18296;SDS011;18066;52.106;5.534;2023-02-23T02:04:08;55.27;;;29.63;;
18296;SDS011;18066;52.106;5.534;2023-02-23T02:06:40;59.37;;;31.03;;
18296;SDS011;18066;52.106;5.534;2023-02-23T02:09:10;56.77;;;29.43;;
18296;SDS011;18066;52.106;5.534;2023-02-23T02:11:42;54.80;;;29.37;;
18296;SDS011;18066;52.106;5.534;2023-02-23T02:14:12;53.23;;;29.10;;
18296;SDS011;18066;52.106;5.534;2023-02-23T02:16:50;58.63;;;28.87;;
18296;SDS011;18066;52.106;5.534;2023-02-23T02:25:54;50.10;;;27.17;;
18296;SDS011;18066;52.106;5.534;2023-02-23T02:28:31;56.37;;;29.87;;
18296;SDS011;18066;52.106;5.534;2023-02-23T02:34:24;54.67;;;28.47;;
18296;SDS011;18066;52.106;5.534;2023-02-23T02:37:17;55.20;;;28.73;;
18296;SDS011;18066;52.106;5.534;2023-02-23T02:39:53;59.10;;;29.37;;
18296;SDS011;18066;52.106;5.534;2023-02-23T02:42:43;55.33;;;28.47;;
18296;SDS011;18066;52.106;5.534;2023-02-23T02:45:21;52.07;;;29.53;;
18296;SDS011;18066;52.106;5.534;2023-02-23T02:47:54;57.00;;;29.47;;
18296;SDS011;18066;52.106;5.534;2023-02-23T02:50:27;55.33;;;29.20;;
18296;SDS011;18066;52.106;5.534;2023-02-23T02:53:07;55.90;;;31.00;;
18296;SDS011;18066;52.106;5.534;2023-02-23T02:55:36;63.30;;;30.07;;
18296;SDS011;18066;52.106;5.534;2023-02-23T02:58:07;65.80;;;32.50;;
18296;SDS011;18066;52.106;5.534;2023-02-23T03:00:38;58.63;;;31.03;;
18296;SDS011;18066;52.106;5.534;2023-02-23T03:03:27;59.00;;;29.53;;
18296;SDS011;18066;52.106;5.534;2023-02-23T03:06:13;64.03;;;31.10;;
18296;SDS011;18066;52.106;5.534;2023-02-23T03:09:00;63.47;;;30.60;;
18296;SDS011;18066;52.106;5.534;2023-02-23T03:11:53;60.17;;;31.00;;
18296;SDS011;18066;52.106;5.534;2023-02-23T03:14:48;60.10;;;31.23;;
18296;SDS011;18066;52.106;5.534;2023-02-23T03:17:46;58.80;;;29.70;;
18296;SDS011;18066;52.106;5.534;2023-02-23T03:20:36;59.63;;;31.70;;
18296;SDS011;18066;52.106;5.534;2023-02-23T03:23:27;62.93;;;31.30;;
18296;SDS011;18066;52.106;5.534;2023-02-23T03:26:22;59.83;;;29.80;;
18296;SDS011;18066;52.106;5.534;2023-02-23T03:29:11;61.53;;;31.57;;
18296;SDS011;18066;52.106;5.534;2023-02-23T03:32:02;57.83;;;29.93;;
18296;SDS011;18066;52.106;5.534;2023-02-23T03:34:53;57.27;;;30.00;;
18296;SDS011;18066;52.106;5.534;2023-02-23T03:37:42;61.73;;;29.87;;
18296;SDS011;18066;52.106;5.534;2023-02-23T03:40:31;64.57;;;30.47;;
18296;SDS011;18066;52.106;5.534;2023-02-23T03:43:21;63.10;;;31.07;;
18296;SDS011;18066;52.106;5.534;2023-02-23T03:46:09;65.90;;;31.23;;
18296;SDS011;18066;52.106;5.534;2023-02-23T03:48:56;64.90;;;31.90;;
18296;SDS011;18066;52.106;5.534;2023-02-23T03:51:45;58.47;;;30.27;;
18296;SDS011;18066;52.106;5.534;2023-02-23T03:54:34;62.07;;;32.10;;
18296;SDS011;18066;52.106;5.534;2023-02-23T03:57:23;67.47;;;33.43;;
18296;SDS011;18066;52.106;5.534;2023-02-23T04:00:14;65.80;;;32.20;;
18296;SDS011;18066;52.106;5.534;2023-02-23T04:03:03;69.33;;;33.10;;
18296;SDS011;18066;52.106;5.534;2023-02-23T04:05:50;67.77;;;34.20;;
18296;SDS011;18066;52.106;5.534;2023-02-23T04:08:37;64.83;;;33.23;;
18296;SDS011;18066;52.106;5.534;2023-02-23T04:11:24;63.43;;;31.00;;
18296;SDS011;18066;52.106;5.534;2023-02-23T04:14:14;64.00;;;32.13;;
18296;SDS011;18066;52.106;5.534;2023-02-23T04:16:44;64.50;;;32.23;;
18296;SDS011;18066;52.106;5.534;2023-02-23T04:19:11;61.73;;;33.07;;
18296;SDS011;18066;52.106;5.534;2023-02-23T04:21:38;58.87;;;30.70;;
18296;SDS011;18066;52.106;5.534;2023-02-23T04:24:05;67.93;;;32.50;;
18296;SDS011;18066;52.106;5.534;2023-02-23T04:26:33;65.17;;;32.70;;
18296;SDS011;18066;52.106;5.534;2023-02-23T04:29:00;58.57;;;31.10;;
18296;SDS011;18066;52.106;5.534;2023-02-23T04:31:27;59.37;;;31.00;;
18296;SDS011;18066;52.106;5.534;2023-02-23T04:33:55;62.20;;;29.53;;
18296;SDS011;18066;52.106;5.534;2023-02-23T04:36:22;57.10;;;29.60;;
18296;SDS011;18066;52.106;5.534;2023-02-23T04:38:50;53.83;;;29.23;;
18296;SDS011;18066;52.106;5.534;2023-02-23T04:41:17;58.67;;;30.37;;
18296;SDS011;18066;52.106;5.534;2023-02-23T04:43:44;57.17;;;29.97;;
18296;SDS011;18066;52.106;5.534;2023-02-23T04:46:11;54.53;;;29.13;;
18296;SDS011;18066;52.106;5.534;2023-02-23T04:48:37;55.60;;;28.60;;
18296;SDS011;18066;52.106;5.534;2023-02-23T04:51:06;62.60;;;31.10;;
18296;SDS011;18066;52.106;5.534;2023-02-23T04:53:33;59.07;;;29.63;;
18296;SDS011;18066;52.106;5.534;2023-02-23T04:55:59;53.00;;;28.23;;
18296;SDS011;18066;52.106;5.534;2023-02-23T04:58:26;54.17;;;28.40;;
18296;SDS011;18066;52.106;5.534;2023-02-23T05:00:53;62.07;;;31.10;;
18296;SDS011;18066;52.106;5.534;2023-02-23T05:03:20;58.67;;;31.03;;
18296;SDS011;18066;52.106;5.534;2023-02-23T05:05:47;55.67;;;29.23;;
18296;SDS011;18066;52.106;5.534;2023-02-23T05:08:15;59.43;;;29.43;;
18296;SDS011;18066;52.106;5.534;2023-02-23T05:10:42;61.97;;;30.03;;
18296;SDS011;18066;52.106;5.534;2023-02-23T05:13:10;56.13;;;28.93;;
18296;SDS011;18066;52.106;5.534;2023-02-23T05:15:37;56.53;;;28.10;;
18296;SDS011;18066;52.106;5.534;2023-02-23T05:18:04;61.47;;;29.90;;
18296;SDS011;18066;52.106;5.534;2023-02-23T05:20:32;57.63;;;29.57;;
18296;SDS011;18066;52.106;5.534;2023-02-23T05:22:58;56.20;;;29.60;;
18296;SDS011;18066;52.106;5.534;2023-02-23T05:25:27;59.60;;;29.90;;
18296;SDS011;18066;52.106;5.534;2023-02-23T05:27:54;60.73;;;31.43;;
18296;SDS011;18066;52.106;5.534;2023-02-23T05:30:20;58.13;;;29.17;;
18296;SDS011;18066;52.106;5.534;2023-02-23T05:32:47;66.63;;;33.17;;
18296;SDS011;18066;52.106;5.534;2023-02-23T05:35:15;54.50;;;28.97;;
18296;SDS011;18066;52.106;5.534;2023-02-23T05:37:42;66.27;;;31.03;;
18296;SDS011;18066;52.106;5.534;2023-02-23T05:40:10;63.87;;;31.70;;
18296;SDS011;18066;52.106;5.534;2023-02-23T05:42:38;58.77;;;30.23;;
18296;SDS011;18066;52.106;5.534;2023-02-23T05:45:06;62.87;;;31.77;;
18296;SDS011;18066;52.106;5.534;2023-02-23T05:47:33;67.63;;;32.77;;
18296;SDS011;18066;52.106;5.534;2023-02-23T05:50:02;64.20;;;30.43;;
18296;SDS011;18066;52.106;5.534;2023-02-23T05:52:30;62.93;;;32.40;;
18296;SDS011;18066;52.106;5.534;2023-02-23T05:54:57;64.37;;;31.47;;
18296;SDS011;18066;52.106;5.534;2023-02-23T05:57:24;66.10;;;31.70;;
18296;SDS011;18066;52.106;5.534;2023-02-23T05:59:52;60.23;;;30.90;;
18296;SDS011;18066;52.106;5.534;2023-02-23T06:02:19;64.00;;;30.80;;
18296;SDS011;18066;52.106;5.534;2023-02-23T06:04:46;61.27;;;29.23;;
18296;SDS011;18066;52.106;5.534;2023-02-23T06:07:13;60.17;;;30.73;;
18296;SDS011;18066;52.106;5.534;2023-02-23T06:09:40;64.80;;;32.00;;
18296;SDS011;18066;52.106;5.534;2023-02-23T06:12:06;62.07;;;29.50;;
18296;SDS011;18066;52.106;5.534;2023-02-23T06:14:34;62.07;;;29.57;;
18296;SDS011;18066;52.106;5.534;2023-02-23T06:17:02;59.87;;;30.17;;
18296;SDS011;18066;52.106;5.534;2023-02-23T06:19:29;60.73;;;30.60;;
18296;SDS011;18066;52.106;5.534;2023-02-23T06:21:56;63.17;;;29.53;;
18296;SDS011;18066;52.106;5.534;2023-02-23T06:24:23;66.40;;;31.70;;
18296;SDS011;18066;52.106;5.534;2023-02-23T06:26:50;62.70;;;30.17;;
18296;SDS011;18066;52.106;5.534;2023-02-23T06:29:17;60.43;;;30.40;;
18296;SDS011;18066;52.106;5.534;2023-02-23T06:31:44;66.07;;;29.63;;
18296;SDS011;18066;52.106;5.534;2023-02-23T06:34:12;59.07;;;29.07;;
18296;SDS011;18066;52.106;5.534;2023-02-23T06:36:39;63.37;;;30.57;;
18296;SDS011;18066;52.106;5.534;2023-02-23T06:39:05;57.03;;;29.73;;
18296;SDS011;18066;52.106;5.534;2023-02-23T06:41:32;61.67;;;30.53;;
18296;SDS011;18066;52.106;5.534;2023-02-23T06:43:59;59.90;;;30.13;;
18296;SDS011;18066;52.106;5.534;2023-02-23T06:46:26;60.83;;;30.27;;
18296;SDS011;18066;52.106;5.534;2023-02-23T06:48:53;52.03;;;27.83;;
18296;SDS011;18066;52.106;5.534;2023-02-23T06:51:22;54.10;;;27.73;;
18296;SDS011;18066;52.106;5.534;2023-02-23T06:53:49;58.33;;;29.23;;
18296;SDS011;18066;52.106;5.534;2023-02-23T06:56:16;61.50;;;28.37;;
18296;SDS011;18066;52.106;5.534;2023-02-23T06:58:43;54.60;;;28.20;;
18296;SDS011;18066;52.106;5.534;2023-02-23T07:01:10;62.30;;;29.73;;
18296;SDS011;18066;52.106;5.534;2023-02-23T07:03:37;62.63;;;30.83;;
18296;SDS011;18066;52.106;5.534;2023-02-23T07:06:04;63.53;;;29.53;;
18296;SDS011;18066;52.106;5.534;2023-02-23T07:08:33;65.10;;;29.63;;
18296;SDS011;18066;52.106;5.534;2023-02-23T07:11:04;54.57;;;26.73;;
18296;SDS011;18066;52.106;5.534;2023-02-23T07:13:32;58.13;;;29.70;;
18296;SDS011;18066;52.106;5.534;2023-02-23T07:15:59;56.87;;;28.17;;
18296;SDS011;18066;52.106;5.534;2023-02-23T07:18:26;53.60;;;27.43;;
18296;SDS011;18066;52.106;5.534;2023-02-23T07:20:52;57.70;;;28.50;;
18296;SDS011;18066;52.106;5.534;2023-02-23T07:23:19;55.00;;;26.07;;
18296;SDS011;18066;52.106;5.534;2023-02-23T07:25:50;54.43;;;27.37;;
18296;SDS011;18066;52.106;5.534;2023-02-23T07:28:17;55.60;;;28.27;;
18296;SDS011;18066;52.106;5.534;2023-02-23T07:30:45;58.73;;;29.67;;
18296;SDS011;18066;52.106;5.534;2023-02-23T07:33:13;53.23;;;27.17;;
18296;SDS011;18066;52.106;5.534;2023-02-23T07:35:40;48.07;;;25.77;;
18296;SDS011;18066;52.106;5.534;2023-02-23T07:38:09;55.67;;;28.03;;
18296;SDS011;18066;52.106;5.534;2023-02-23T07:40:36;54.53;;;26.83;;
18296;SDS011;18066;52.106;5.534;2023-02-23T07:43:04;57.53;;;27.30;;
18296;SDS011;18066;52.106;5.534;2023-02-23T07:45:31;54.93;;;27.70;;
18296;SDS011;18066;52.106;5.534;2023-02-23T07:47:58;55.63;;;28.53;;
18296;SDS011;18066;52.106;5.534;2023-02-23T07:50:25;49.90;;;27.40;;
18296;SDS011;18066;52.106;5.534;2023-02-23T07:52:52;51.03;;;27.30;;
18296;SDS011;18066;52.106;5.534;2023-02-23T07:55:18;56.30;;;28.30;;
18296;SDS011;18066;52.106;5.534;2023-02-23T07:57:46;56.70;;;28.03;;
18296;SDS011;18066;52.106;5.534;2023-02-23T08:00:14;56.13;;;27.50;;
18296;SDS011;18066;52.106;5.534;2023-02-23T08:02:42;54.27;;;27.37;;
18296;SDS011;18066;52.106;5.534;2023-02-23T08:05:08;50.00;;;25.57;;
18296;SDS011;18066;52.106;5.534;2023-02-23T08:07:35;47.33;;;26.27;;
18296;SDS011;18066;52.106;5.534;2023-02-23T08:10:02;50.40;;;25.93;;
18296;SDS011;18066;52.106;5.534;2023-02-23T08:12:30;57.53;;;27.50;;
18296;SDS011;18066;52.106;5.534;2023-02-23T08:14:57;53.20;;;26.40;;
18296;SDS011;18066;52.106;5.534;2023-02-23T08:17:26;55.50;;;26.83;;
18296;SDS011;18066;52.106;5.534;2023-02-23T08:19:52;42.93;;;25.00;;
18296;SDS011;18066;52.106;5.534;2023-02-23T08:22:19;51.80;;;26.43;;
18296;SDS011;18066;52.106;5.534;2023-02-23T08:24:46;48.27;;;26.37;;
18296;SDS011;18066;52.106;5.534;2023-02-23T08:27:13;57.97;;;28.97;;
18296;SDS011;18066;52.106;5.534;2023-02-23T08:29:40;56.47;;;27.87;;
18296;SDS011;18066;52.106;5.534;2023-02-23T08:32:07;56.27;;;27.03;;
18296;SDS011;18066;52.106;5.534;2023-02-23T08:34:37;56.60;;;27.63;;
18296;SDS011;18066;52.106;5.534;2023-02-23T08:37:04;53.13;;;26.93;;
18296;SDS011;18066;52.106;5.534;2023-02-23T08:39:31;55.40;;;27.87;;
18296;SDS011;18066;52.106;5.534;2023-02-23T08:41:58;58.37;;;26.33;;
18296;SDS011;18066;52.106;5.534;2023-02-23T08:44:25;52.00;;;27.80;;
18296;SDS011;18066;52.106;5.534;2023-02-23T08:46:52;51.07;;;24.80;;
18296;SDS011;18066;52.106;5.534;2023-02-23T08:49:19;53.43;;;28.23;;
18296;SDS011;18066;52.106;5.534;2023-02-23T08:51:48;45.80;;;25.47;;
18296;SDS011;18066;52.106;5.534;2023-02-23T08:54:14;57.90;;;28.07;;
18296;SDS011;18066;52.106;5.534;2023-02-23T08:56:42;55.93;;;26.93;;
18296;SDS011;18066;52.106;5.534;2023-02-23T08:59:10;56.10;;;28.53;;
18296;SDS011;18066;52.106;5.534;2023-02-23T09:01:38;53.20;;;26.80;;
18296;SDS011;18066;52.106;5.534;2023-02-23T09:04:06;57.10;;;28.40;;
18296;SDS011;18066;52.106;5.534;2023-02-23T09:06:33;52.87;;;26.77;;
18296;SDS011;18066;52.106;5.534;2023-02-23T09:09:02;54.97;;;26.10;;
18296;SDS011;18066;52.106;5.534;2023-02-23T09:11:30;55.40;;;26.83;;
18296;SDS011;18066;52.106;5.534;2023-02-23T09:13:56;56.20;;;26.80;;
18296;SDS011;18066;52.106;5.534;2023-02-23T09:16:23;56.93;;;25.97;;
18296;SDS011;18066;52.106;5.534;2023-02-23T09:18:50;51.77;;;24.50;;
18296;SDS011;18066;52.106;5.534;2023-02-23T09:21:18;56.57;;;26.27;;
18296;SDS011;18066;52.106;5.534;2023-02-23T09:23:49;54.17;;;26.13;;
18296;SDS011;18066;52.106;5.534;2023-02-23T09:26:18;52.07;;;25.60;;
18296;SDS011;18066;52.106;5.534;2023-02-23T09:28:45;52.20;;;23.53;;
18296;SDS011;18066;52.106;5.534;2023-02-23T09:31:12;54.77;;;25.70;;
18296;SDS011;18066;52.106;5.534;2023-02-23T09:33:40;48.73;;;23.33;;
18296;SDS011;18066;52.106;5.534;2023-02-23T09:36:07;57.13;;;25.57;;
18296;SDS011;18066;52.106;5.534;2023-02-23T09:38:36;55.13;;;25.53;;
18296;SDS011;18066;52.106;5.534;2023-02-23T09:41:03;47.73;;;22.73;;
18296;SDS011;18066;52.106;5.534;2023-02-23T09:44:00;51.67;;;23.07;;
18296;SDS011;18066;52.106;5.534;2023-02-23T09:46:32;54.83;;;25.10;;
18296;SDS011;18066;52.106;5.534;2023-02-23T09:49:07;47.03;;;22.80;;
18296;SDS011;18066;52.106;5.534;2023-02-23T09:51:40;48.07;;;21.53;;
18296;SDS011;18066;52.106;5.534;2023-02-23T09:54:12;42.47;;;20.30;;
18296;SDS011;18066;52.106;5.534;2023-02-23T09:56:42;51.87;;;23.13;;
18296;SDS011;18066;52.106;5.534;2023-02-23T09:59:13;50.27;;;22.20;;
18296;SDS011;18066;52.106;5.534;2023-02-23T10:01:50;48.67;;;22.67;;
18296;SDS011;18066;52.106;5.534;2023-02-23T10:04:24;43.67;;;20.20;;
18296;SDS011;18066;52.106;5.534;2023-02-23T10:06:57;46.83;;;21.83;;
18296;SDS011;18066;52.106;5.534;2023-02-23T10:09:33;44.83;;;20.00;;
18296;SDS011;18066;52.106;5.534;2023-02-23T10:12:10;46.60;;;20.50;;
18296;SDS011;18066;52.106;5.534;2023-02-23T10:14:57;43.13;;;20.50;;
18296;SDS011;18066;52.106;5.534;2023-02-23T10:17:33;43.47;;;19.60;;
18296;SDS011;18066;52.106;5.534;2023-02-23T10:20:09;42.90;;;19.07;;
18296;SDS011;18066;52.106;5.534;2023-02-23T10:22:44;46.03;;;19.87;;
18296;SDS011;18066;52.106;5.534;2023-02-23T10:25:13;40.70;;;19.37;;
18296;SDS011;18066;52.106;5.534;2023-02-23T10:27:44;37.70;;;19.17;;
18296;SDS011;18066;52.106;5.534;2023-02-23T10:30:17;39.53;;;17.97;;
18296;SDS011;18066;52.106;5.534;2023-02-23T10:32:48;44.57;;;19.23;;
18296;SDS011;18066;52.106;5.534;2023-02-23T10:35:20;37.67;;;18.67;;
18296;SDS011;18066;52.106;5.534;2023-02-23T10:37:47;42.23;;;18.30;;
18296;SDS011;18066;52.106;5.534;2023-02-23T10:40:16;38.37;;;18.70;;
18296;SDS011;18066;52.106;5.534;2023-02-23T10:42:44;40.70;;;18.40;;
18296;SDS011;18066;52.106;5.534;2023-02-23T10:45:12;44.03;;;18.83;;
18296;SDS011;18066;52.106;5.534;2023-02-23T10:47:44;39.27;;;19.20;;
18296;SDS011;18066;52.106;5.534;2023-02-23T10:50:11;42.47;;;18.53;;
18296;SDS011;18066;52.106;5.534;2023-02-23T10:52:40;43.27;;;19.40;;
18296;SDS011;18066;52.106;5.534;2023-02-23T10:55:19;40.63;;;18.70;;
18296;SDS011;18066;52.106;5.534;2023-02-23T10:57:59;42.23;;;18.00;;
18296;SDS011;18066;52.106;5.534;2023-02-23T11:00:28;31.63;;;16.27;;
18296;SDS011;18066;52.106;5.534;2023-02-23T11:02:59;40.17;;;17.60;;
18296;SDS011;18066;52.106;5.534;2023-02-23T11:05:37;43.63;;;18.37;;
18296;SDS011;18066;52.106;5.534;2023-02-23T11:08:16;36.23;;;16.60;;
18296;SDS011;18066;52.106;5.534;2023-02-23T11:10:59;36.63;;;15.80;;
18296;SDS011;18066;52.106;5.534;2023-02-23T11:13:32;35.77;;;17.37;;
18296;SDS011;18066;52.106;5.534;2023-02-23T11:16:05;34.47;;;16.17;;
18296;SDS011;18066;52.106;5.534;2023-02-23T11:18:36;29.17;;;14.50;;
18296;SDS011;18066;52.106;5.534;2023-02-23T11:21:08;31.10;;;14.93;;
18296;SDS011;18066;52.106;5.534;2023-02-23T11:23:42;34.63;;;14.30;;
18296;SDS011;18066;52.106;5.534;2023-02-23T11:26:27;27.80;;;13.80;;
18296;SDS011;18066;52.106;5.534;2023-02-23T11:28:58;28.17;;;14.07;;
18296;SDS011;18066;52.106;5.534;2023-02-23T11:31:30;31.13;;;14.60;;
18296;SDS011;18066;52.106;5.534;2023-02-23T11:34:00;28.47;;;13.27;;
18296;SDS011;18066;52.106;5.534;2023-02-23T11:36:29;27.57;;;13.50;;
18296;SDS011;18066;52.106;5.534;2023-02-23T11:39:05;31.13;;;13.60;;
18296;SDS011;18066;52.106;5.534;2023-02-23T11:41:43;28.63;;;14.20;;
18296;SDS011;18066;52.106;5.534;2023-02-23T11:44:18;27.97;;;12.50;;
18296;SDS011;18066;52.106;5.534;2023-02-23T11:46:45;25.37;;;13.20;;
18296;SDS011;18066;52.106;5.534;2023-02-23T11:49:16;27.13;;;13.17;;
18296;SDS011;18066;52.106;5.534;2023-02-23T11:51:46;26.83;;;12.07;;
18296;SDS011;18066;52.106;5.534;2023-02-23T11:54:18;23.70;;;11.53;;
18296;SDS011;18066;52.106;5.534;2023-02-23T11:56:48;21.47;;;11.07;;
18296;SDS011;18066;52.106;5.534;2023-02-23T11:59:20;23.00;;;10.97;;
18296;SDS011;18066;52.106;5.534;2023-02-23T12:01:52;24.07;;;10.43;;
18296;SDS011;18066;52.106;5.534;2023-02-23T12:04:26;22.80;;;10.83;;
18296;SDS011;18066;52.106;5.534;2023-02-23T12:06:56;19.80;;;10.43;;
18296;SDS011;18066;52.106;5.534;2023-02-23T12:09:51;19.63;;;9.97;;
18296;SDS011;18066;52.106;5.534;2023-02-23T12:12:22;21.60;;;10.33;;
18296;SDS011;18066;52.106;5.534;2023-02-23T12:14:54;22.83;;;11.30;;
18296;SDS011;18066;52.106;5.534;2023-02-23T12:17:26;25.73;;;11.43;;
18296;SDS011;18066;52.106;5.534;2023-02-23T12:19:55;28.80;;;11.03;;
18296;SDS011;18066;52.106;5.534;2023-02-23T12:22:30;23.30;;;11.80;;
18296;SDS011;18066;52.106;5.534;2023-02-23T12:25:00;24.47;;;11.17;;
18296;SDS011;18066;52.106;5.534;2023-02-23T12:27:30;25.03;;;12.37;;
18296;SDS011;18066;52.106;5.534;2023-02-23T12:30:08;24.00;;;12.27;;
18296;SDS011;18066;52.106;5.534;2023-02-23T12:32:43;26.17;;;12.30;;
18296;SDS011;18066;52.106;5.534;2023-02-23T12:35:16;27.57;;;11.83;;
18296;SDS011;18066;52.106;5.534;2023-02-23T12:37:48;25.47;;;12.90;;
18296;SDS011;18066;52.106;5.534;2023-02-23T12:40:21;29.67;;;11.57;;
18296;SDS011;18066;52.106;5.534;2023-02-23T12:42:55;23.20;;;10.87;;
18296;SDS011;18066;52.106;5.534;2023-02-23T12:45:28;19.83;;;10.80;;
18296;SDS011;18066;52.106;5.534;2023-02-23T12:48:02;20.93;;;10.07;;
18296;SDS011;18066;52.106;5.534;2023-02-23T12:50:38;23.73;;;11.00;;
18296;SDS011;18066;52.106;5.534;2023-02-23T12:53:15;23.00;;;11.20;;
18296;SDS011;18066;52.106;5.534;2023-02-23T12:55:48;23.63;;;11.23;;
18296;SDS011;18066;52.106;5.534;2023-02-23T12:58:26;29.20;;;12.10;;
18296;SDS011;18066;52.106;5.534;2023-02-23T13:00:58;22.83;;;10.67;;
18296;SDS011;18066;52.106;5.534;2023-02-23T13:03:32;22.07;;;11.07;;
18296;SDS011;18066;52.106;5.534;2023-02-23T13:06:24;19.23;;;9.33;;
18296;SDS011;18066;52.106;5.534;2023-02-23T13:09:10;18.27;;;9.10;;
18296;SDS011;18066;52.106;5.534;2023-02-23T13:11:53;16.07;;;8.70;;
18296;SDS011;18066;52.106;5.534;2023-02-23T13:14:33;18.50;;;8.40;;
18296;SDS011;18066;52.106;5.534;2023-02-23T13:17:11;16.93;;;8.97;;
18296;SDS011;18066;52.106;5.534;2023-02-23T13:19:51;18.20;;;8.30;;
18296;SDS011;18066;52.106;5.534;2023-02-23T13:22:25;20.57;;;9.50;;
18296;SDS011;18066;52.106;5.534;2023-02-23T13:25:01;17.67;;;9.83;;
18296;SDS011;18066;52.106;5.534;2023-02-23T13:27:33;21.47;;;9.50;;
18296;SDS011;18066;52.106;5.534;2023-02-23T13:30:03;16.73;;;9.23;;
18296;SDS011;18066;52.106;5.534;2023-02-23T13:32:35;18.83;;;10.00;;
18296;SDS011;18066;52.106;5.534;2023-02-23T13:35:04;19.37;;;10.70;;
18296;SDS011;18066;52.106;5.534;2023-02-23T13:37:33;18.17;;;9.23;;
18296;SDS011;18066;52.106;5.534;2023-02-23T13:40:21;17.70;;;9.43;;
18296;SDS011;18066;52.106;5.534;2023-02-23T13:42:56;18.43;;;9.90;;
18296;SDS011;18066;52.106;5.534;2023-02-23T13:45:36;15.97;;;9.27;;
18296;SDS011;18066;52.106;5.534;2023-02-23T13:48:15;19.13;;;9.73;;
18296;SDS011;18066;52.106;5.534;2023-02-23T13:50:52;19.07;;;8.60;;
18296;SDS011;18066;52.106;5.534;2023-02-23T13:53:31;17.13;;;8.90;;
18296;SDS011;18066;52.106;5.534;2023-02-23T13:56:08;22.60;;;9.67;;
18296;SDS011;18066;52.106;5.534;2023-02-23T13:58:43;18.70;;;10.03;;
18296;SDS011;18066;52.106;5.534;2023-02-23T14:01:13;17.80;;;9.97;;
18296;SDS011;18066;52.106;5.534;2023-02-23T14:03:51;17.33;;;9.37;;
18296;SDS011;18066;52.106;5.534;2023-02-23T14:06:20;22.20;;;11.07;;
18296;SDS011;18066;52.106;5.534;2023-02-23T14:08:50;19.37;;;10.13;;
18296;SDS011;18066;52.106;5.534;2023-02-23T14:14:17;19.77;;;9.73;;
18296;SDS011;18066;52.106;5.534;2023-02-23T14:17:15;23.17;;;9.67;;
18296;SDS011;18066;52.106;5.534;2023-02-23T14:20:19;20.77;;;10.37;;
18296;SDS011;18066;52.106;5.534;2023-02-23T14:26:14;22.07;;;10.40;;
18296;SDS011;18066;52.106;5.534;2023-02-23T14:31:55;25.80;;;10.90;;
18296;SDS011;18066;52.106;5.534;2023-02-23T14:34:41;22.80;;;10.80;;
18296;SDS011;18066;52.106;5.534;2023-02-23T14:37:13;24.30;;;10.53;;
18296;SDS011;18066;52.106;5.534;2023-02-23T14:39:43;22.70;;;10.90;;
18296;SDS011;18066;52.106;5.534;2023-02-23T14:42:13;23.30;;;10.47;;
18296;SDS011;18066;52.106;5.534;2023-02-23T14:44:47;18.77;;;9.73;;
18296;SDS011;18066;52.106;5.534;2023-02-23T14:47:16;25.47;;;10.90;;
18296;SDS011;18066;52.106;5.534;2023-02-23T14:49:46;24.43;;;11.23;;
18296;SDS011;18066;52.106;5.534;2023-02-23T14:52:16;27.33;;;11.37;;
18296;SDS011;18066;52.106;5.534;2023-02-23T14:54:46;27.13;;;12.20;;
18296;SDS011;18066;52.106;5.534;2023-02-23T14:57:15;26.07;;;11.63;;
18296;SDS011;18066;52.106;5.534;2023-02-23T14:59:44;28.80;;;12.83;;
18296;SDS011;18066;52.106;5.534;2023-02-23T15:02:19;25.23;;;12.03;;
18296;SDS011;18066;52.106;5.534;2023-02-23T15:04:48;28.10;;;12.37;;
18296;SDS011;18066;52.106;5.534;2023-02-23T15:07:16;26.37;;;12.13;;
18296;SDS011;18066;52.106;5.534;2023-02-23T15:09:49;29.93;;;13.40;;